General Aviation Weather

Text Reports

Enter one or more of the following location identifiers separated by a space:

Zip Code, Four-Character ICAO or Three-Character IATA airport codes.

METAR - Aviation Routine Weather Report
YPKG - Kalgoorlie-Boulder,
Updated at 08:00 AM GMT am 21. Januar 2017 (16:00 AWST):
METAR YPKG 210800Z AUTO 21007KT 9999 // NCD 35/08 Q1005
TAF - Terminal Area Forecast
YPKG - Kalgoorlie-Boulder,
Updated at 08:00 AM GMT am 21. Januar 2017 (16:00 AWST):
No TAF is currently available for this location.
Decoded:
No decoded TAF is available.
PIREP - Pilot Weather Report
YPKG - Kalgoorlie-Boulder,
Updated at 08:00 AM GMT am 21. Januar 2017 (16:00 AWST):
No PIREP is currently available for this location.
AIRMET - Airmens Meteorological Information
YPKG - Kalgoorlie-Boulder,
Updated at 08:00 AM GMT am 21. Januar 2017 (16:00 AWST):
No AIRMET is currently available for this location.
SIGMET - Significant Meteorological Information
YPKG - Kalgoorlie-Boulder,
Updated at 08:00 AM GMT am 21. Januar 2017 (16:00 AWST):
No SIGMET is currently available for this location.
NOTAM - Notice to Airmen
YPKG - Kalgoorlie-Boulder,
Updated at 08:00 AM GMT am 21. Januar 2017 (16:00 AWST):
No NOTAM is currently available for this location.
Forecast Area
YPKG - Kalgoorlie-Boulder,
Updated at 08:00 AM GMT am 21. Januar 2017 (16:00 AWST):
No NOTAM is currently available for this location.
Aviation Weather Maps